< < Back
Terminal Aerodrome Forecast


Current Version              Previous Versions:   1  2  3  4  5  6  7  8  9  

Terminal Aerodrome Forecast

696
FTUS42 KCAE 202000 AAA
TAFCAE
TAF AMD
KCAE 202042Z 2021/2118 04012G20KT P6SM BKN045
     FM210000 02010KT P6SM BKN045
     FM210300 02005KT P6SM SCT045
     FM211400 02007KT P6SM SKC=



Latest METAR

936
SAUS80 KWBC 210400
MTRCAE
METAR KCAE 210356Z 03005KT 10SM FEW060 17/06 A3014 RMK AO2 SLP206
T01670056


USA.gov is the U.S. government's official web portal to all federal, state and local government web resources and services.